Overview Statistics Trail Chart Weather Telemetry Raw packets
 

This is the latest recevied weather packets stored in our database for station/object KG5APU. If no packets are shown the sender has not sent any weather packets the latest 10 day(s).

<< 38 39 40 41 42 43 44 >>
Time Temp. Humidity Pressure Rain* Wind** Luminosity Snow
1788052187 33.89° C 45% 1014.4 hPa 0 mm - 0 W/m² -
1788051582 34.44° C 45% 1014.4 hPa 0 mm - 2 W/m² -
1788050980 35° C 43% 1014.4 hPa 0 mm - 7 W/m² -
1788050374 35.56° C 40% 1014.2 hPa 0 mm - 15 W/m² -
1788049772 36.67° C 38% 1014.4 hPa 0 mm - 26 W/m² -
1788049169 36.67° C 36% 1014.2 hPa 0 mm - 38 W/m² -
1788048564 37.22° C 36% 1014.3 hPa 0 mm - 53 W/m² -
1788047960 37.78° C 36% 1014.4 hPa 0 mm - 71 W/m² -
1788047354 37.78° C 35% 1014.5 hPa 0 mm - 92 W/m² -
1788046749 38.33° C 35% 1014.4 hPa 0 mm - 115 W/m² -
1788046147 38.33° C 35% 1014.5 hPa 0 mm - 138 W/m² -
1788045543 38.33° C 35% 1014.6 hPa 0 mm - 163 W/m² -
1788044940 38.89° C 35% 1014.2 hPa 0 mm - 189 W/m² -
1788044338 38.89° C 34% 1014.5 hPa 0 mm - 218 W/m² -
1788043735 38.33° C 34% 1014.5 hPa 0 mm - 244 W/m² -
1788043135 38.33° C 34% 1014.8 hPa 0 mm - 271 W/m² -
1788042530 38.33° C 33% 1014.6 hPa 0 mm - 305 W/m² -
1788041927 38.33° C 34% 1014.5 hPa 0 mm - 342 W/m² -
1788041322 37.78° C 35% 1014.7 hPa 0 mm - 373 W/m² -
1788040720 37.78° C 34% 1014.9 hPa 0 mm - 398 W/m² -
1788040117 37.78° C 37% 1015 hPa 0 mm - 436 W/m² -
1788039511 38.33° C 33% 1014.9 hPa 0 mm - 432 W/m² -
1788038908 38.33° C 33% 1015.2 hPa 0 mm - 501 W/m² -
1788038308 38.33° C 33% 1015.4 hPa 0 mm - 532 W/m² -
1788037704 38.33° C 34% 1015.3 hPa 0 mm - 557 W/m² -

* Rain latest hour (hover to see other rain measurements)
** Current wind speed in m/s (hover to see current wind gust speed)